sensor_id;sensor_type;location;lat;lon;timestamp;P1;durP1;ratioP1;P2;durP2;ratioP2
22973;SDS011;11653;50.848;4.584;2022-12-18T00:01:53;59.03;;;26.00;;
22973;SDS011;11653;50.848;4.584;2022-12-18T00:04:23;56.10;;;24.60;;
22973;SDS011;11653;50.848;4.584;2022-12-18T00:06:50;54.60;;;24.57;;
22973;SDS011;11653;50.848;4.584;2022-12-18T00:09:16;54.47;;;23.70;;
22973;SDS011;11653;50.848;4.584;2022-12-18T00:11:42;50.73;;;22.97;;
22973;SDS011;11653;50.848;4.584;2022-12-18T00:14:08;52.97;;;24.07;;
22973;SDS011;11653;50.848;4.584;2022-12-18T00:16:35;56.83;;;23.57;;
22973;SDS011;11653;50.848;4.584;2022-12-18T00:19:02;54.77;;;24.43;;
22973;SDS011;11653;50.848;4.584;2022-12-18T00:21:29;53.70;;;24.53;;
22973;SDS011;11653;50.848;4.584;2022-12-18T00:23:56;54.37;;;25.83;;
22973;SDS011;11653;50.848;4.584;2022-12-18T00:26:24;52.37;;;24.70;;
22973;SDS011;11653;50.848;4.584;2022-12-18T00:28:51;51.33;;;24.57;;
22973;SDS011;11653;50.848;4.584;2022-12-18T00:31:18;54.33;;;24.13;;
22973;SDS011;11653;50.848;4.584;2022-12-18T00:33:47;51.87;;;24.57;;
22973;SDS011;11653;50.848;4.584;2022-12-18T00:36:14;59.17;;;25.13;;
22973;SDS011;11653;50.848;4.584;2022-12-18T00:38:42;54.33;;;25.47;;
22973;SDS011;11653;50.848;4.584;2022-12-18T00:41:09;50.63;;;23.70;;
22973;SDS011;11653;50.848;4.584;2022-12-18T00:43:37;59.20;;;25.53;;
22973;SDS011;11653;50.848;4.584;2022-12-18T00:46:04;53.03;;;23.83;;
22973;SDS011;11653;50.848;4.584;2022-12-18T00:48:30;50.60;;;23.87;;
22973;SDS011;11653;50.848;4.584;2022-12-18T00:50:56;53.00;;;23.83;;
22973;SDS011;11653;50.848;4.584;2022-12-18T00:53:22;57.53;;;28.47;;
22973;SDS011;11653;50.848;4.584;2022-12-18T00:55:48;56.63;;;25.73;;
22973;SDS011;11653;50.848;4.584;2022-12-18T00:58:15;54.73;;;25.67;;
22973;SDS011;11653;50.848;4.584;2022-12-18T01:00:41;56.00;;;26.03;;
22973;SDS011;11653;50.848;4.584;2022-12-18T01:03:09;53.23;;;24.67;;
22973;SDS011;11653;50.848;4.584;2022-12-18T01:05:39;50.30;;;23.50;;
22973;SDS011;11653;50.848;4.584;2022-12-18T01:08:05;52.63;;;24.93;;
22973;SDS011;11653;50.848;4.584;2022-12-18T01:10:31;57.63;;;25.37;;
22973;SDS011;11653;50.848;4.584;2022-12-18T01:12:56;56.60;;;24.90;;
22973;SDS011;11653;50.848;4.584;2022-12-18T01:15:22;55.67;;;25.63;;
22973;SDS011;11653;50.848;4.584;2022-12-18T01:17:48;58.70;;;25.53;;
22973;SDS011;11653;50.848;4.584;2022-12-18T01:20:13;57.63;;;26.10;;
22973;SDS011;11653;50.848;4.584;2022-12-18T01:22:39;51.60;;;25.33;;
22973;SDS011;11653;50.848;4.584;2022-12-18T01:25:05;58.13;;;24.87;;
22973;SDS011;11653;50.848;4.584;2022-12-18T01:27:33;56.77;;;25.90;;
22973;SDS011;11653;50.848;4.584;2022-12-18T01:29:59;51.67;;;24.40;;
22973;SDS011;11653;50.848;4.584;2022-12-18T01:32:24;49.47;;;23.40;;
22973;SDS011;11653;50.848;4.584;2022-12-18T01:34:50;57.77;;;25.67;;
22973;SDS011;11653;50.848;4.584;2022-12-18T01:37:16;47.93;;;23.33;;
22973;SDS011;11653;50.848;4.584;2022-12-18T01:39:41;56.07;;;24.83;;
22973;SDS011;11653;50.848;4.584;2022-12-18T01:42:12;49.47;;;23.73;;
22973;SDS011;11653;50.848;4.584;2022-12-18T01:50:02;49.67;;;24.30;;
22973;SDS011;11653;50.848;4.584;2022-12-18T01:52:37;54.73;;;24.23;;
22973;SDS011;11653;50.848;4.584;2022-12-18T01:55:06;50.63;;;25.57;;
22973;SDS011;11653;50.848;4.584;2022-12-18T01:57:33;54.20;;;23.13;;
22973;SDS011;11653;50.848;4.584;2022-12-18T02:00:00;55.77;;;25.23;;
22973;SDS011;11653;50.848;4.584;2022-12-18T02:02:30;50.80;;;22.97;;
22973;SDS011;11653;50.848;4.584;2022-12-18T02:04:56;46.10;;;22.23;;
22973;SDS011;11653;50.848;4.584;2022-12-18T02:10:31;50.13;;;23.13;;
22973;SDS011;11653;50.848;4.584;2022-12-18T02:18:17;52.37;;;23.03;;
22973;SDS011;11653;50.848;4.584;2022-12-18T02:20:47;53.63;;;23.77;;
22973;SDS011;11653;50.848;4.584;2022-12-18T02:23:32;50.53;;;23.47;;
22973;SDS011;11653;50.848;4.584;2022-12-18T02:28:53;51.63;;;23.33;;
22973;SDS011;11653;50.848;4.584;2022-12-18T02:31:30;52.37;;;22.90;;
22973;SDS011;11653;50.848;4.584;2022-12-18T02:34:01;52.63;;;22.93;;
22973;SDS011;11653;50.848;4.584;2022-12-18T02:36:29;51.63;;;23.77;;
22973;SDS011;11653;50.848;4.584;2022-12-18T02:38:57;49.87;;;23.37;;
22973;SDS011;11653;50.848;4.584;2022-12-18T02:41:25;47.57;;;22.87;;
22973;SDS011;11653;50.848;4.584;2022-12-18T02:44:01;49.47;;;21.93;;
22973;SDS011;11653;50.848;4.584;2022-12-18T02:46:32;46.43;;;21.60;;
22973;SDS011;11653;50.848;4.584;2022-12-18T02:57:50;39.93;;;19.10;;
22973;SDS011;11653;50.848;4.584;2022-12-18T03:00:22;41.90;;;21.43;;
22973;SDS011;11653;50.848;4.584;2022-12-18T03:02:58;47.67;;;22.57;;
22973;SDS011;11653;50.848;4.584;2022-12-18T03:05:35;53.93;;;22.90;;
22973;SDS011;11653;50.848;4.584;2022-12-18T03:08:15;58.83;;;25.20;;
22973;SDS011;11653;50.848;4.584;2022-12-18T03:10:47;49.43;;;22.23;;
22973;SDS011;11653;50.848;4.584;2022-12-18T03:13:20;50.33;;;23.67;;
22973;SDS011;11653;50.848;4.584;2022-12-18T03:15:56;52.60;;;22.27;;
22973;SDS011;11653;50.848;4.584;2022-12-18T03:18:25;46.93;;;22.90;;
22973;SDS011;11653;50.848;4.584;2022-12-18T03:20:58;56.33;;;24.20;;
22973;SDS011;11653;50.848;4.584;2022-12-18T03:23:28;50.63;;;23.97;;
22973;SDS011;11653;50.848;4.584;2022-12-18T03:25:57;54.47;;;23.33;;
22973;SDS011;11653;50.848;4.584;2022-12-18T03:28:26;55.67;;;23.63;;
22973;SDS011;11653;50.848;4.584;2022-12-18T03:30:56;50.80;;;21.90;;
22973;SDS011;11653;50.848;4.584;2022-12-18T03:33:25;53.50;;;21.40;;
22973;SDS011;11653;50.848;4.584;2022-12-18T03:35:59;46.07;;;22.30;;
22973;SDS011;11653;50.848;4.584;2022-12-18T03:38:25;49.77;;;22.60;;
22973;SDS011;11653;50.848;4.584;2022-12-18T03:46:28;51.03;;;23.50;;
22973;SDS011;11653;50.848;4.584;2022-12-18T03:49:04;49.03;;;22.20;;
22973;SDS011;11653;50.848;4.584;2022-12-18T03:51:55;48.10;;;21.93;;
22973;SDS011;11653;50.848;4.584;2022-12-18T03:54:36;47.70;;;22.53;;
22973;SDS011;11653;50.848;4.584;2022-12-18T03:57:08;52.63;;;23.60;;
22973;SDS011;11653;50.848;4.584;2022-12-18T03:59:38;48.63;;;22.70;;
22973;SDS011;11653;50.848;4.584;2022-12-18T04:02:05;49.73;;;23.13;;
22973;SDS011;11653;50.848;4.584;2022-12-18T04:04:33;50.97;;;22.37;;
22973;SDS011;11653;50.848;4.584;2022-12-18T04:07:00;52.73;;;23.63;;
22973;SDS011;11653;50.848;4.584;2022-12-18T04:09:27;54.47;;;24.83;;
22973;SDS011;11653;50.848;4.584;2022-12-18T04:11:55;54.10;;;22.60;;
22973;SDS011;11653;50.848;4.584;2022-12-18T04:14:20;44.87;;;21.73;;
22973;SDS011;11653;50.848;4.584;2022-12-18T04:16:46;57.73;;;23.90;;
22973;SDS011;11653;50.848;4.584;2022-12-18T04:19:12;45.70;;;21.43;;
22973;SDS011;11653;50.848;4.584;2022-12-18T04:21:37;50.40;;;23.17;;
22973;SDS011;11653;50.848;4.584;2022-12-18T04:24:03;50.13;;;23.37;;
22973;SDS011;11653;50.848;4.584;2022-12-18T04:26:29;48.57;;;20.90;;
22973;SDS011;11653;50.848;4.584;2022-12-18T04:28:55;46.70;;;21.90;;
22973;SDS011;11653;50.848;4.584;2022-12-18T04:31:21;50.80;;;22.13;;
22973;SDS011;11653;50.848;4.584;2022-12-18T04:33:46;48.70;;;21.50;;
22973;SDS011;11653;50.848;4.584;2022-12-18T04:36:12;47.03;;;22.23;;
22973;SDS011;11653;50.848;4.584;2022-12-18T04:38:38;50.67;;;21.70;;
22973;SDS011;11653;50.848;4.584;2022-12-18T04:41:03;47.97;;;21.83;;
22973;SDS011;11653;50.848;4.584;2022-12-18T04:43:29;50.17;;;21.70;;
22973;SDS011;11653;50.848;4.584;2022-12-18T04:46:16;44.83;;;21.17;;
22973;SDS011;11653;50.848;4.584;2022-12-18T04:48:41;50.47;;;21.27;;
22973;SDS011;11653;50.848;4.584;2022-12-18T04:51:06;44.53;;;20.00;;
22973;SDS011;11653;50.848;4.584;2022-12-18T04:53:32;51.10;;;21.33;;
22973;SDS011;11653;50.848;4.584;2022-12-18T04:56:05;39.80;;;19.83;;
22973;SDS011;11653;50.848;4.584;2022-12-18T04:58:33;48.63;;;21.27;;
22973;SDS011;11653;50.848;4.584;2022-12-18T05:00:59;47.70;;;20.50;;
22973;SDS011;11653;50.848;4.584;2022-12-18T05:03:25;52.07;;;22.73;;
22973;SDS011;11653;50.848;4.584;2022-12-18T05:05:50;49.67;;;21.80;;
22973;SDS011;11653;50.848;4.584;2022-12-18T05:08:17;55.07;;;22.60;;
22973;SDS011;11653;50.848;4.584;2022-12-18T05:10:43;52.30;;;22.37;;
22973;SDS011;11653;50.848;4.584;2022-12-18T05:13:08;46.43;;;21.77;;
22973;SDS011;11653;50.848;4.584;2022-12-18T05:15:34;55.27;;;22.77;;
22973;SDS011;11653;50.848;4.584;2022-12-18T05:18:01;47.90;;;20.93;;
22973;SDS011;11653;50.848;4.584;2022-12-18T05:20:27;46.80;;;20.17;;
22973;SDS011;11653;50.848;4.584;2022-12-18T05:22:53;45.17;;;20.97;;
22973;SDS011;11653;50.848;4.584;2022-12-18T05:25:20;45.90;;;21.03;;
22973;SDS011;11653;50.848;4.584;2022-12-18T05:27:46;51.07;;;22.53;;
22973;SDS011;11653;50.848;4.584;2022-12-18T05:30:12;50.40;;;21.47;;
22973;SDS011;11653;50.848;4.584;2022-12-18T05:32:39;42.83;;;20.27;;
22973;SDS011;11653;50.848;4.584;2022-12-18T05:35:05;49.00;;;21.63;;
22973;SDS011;11653;50.848;4.584;2022-12-18T05:37:32;47.50;;;21.37;;
22973;SDS011;11653;50.848;4.584;2022-12-18T05:39:58;52.37;;;23.20;;
22973;SDS011;11653;50.848;4.584;2022-12-18T05:42:24;50.07;;;22.03;;
22973;SDS011;11653;50.848;4.584;2022-12-18T05:44:50;46.43;;;21.70;;
22973;SDS011;11653;50.848;4.584;2022-12-18T05:47:15;50.10;;;22.20;;
22973;SDS011;11653;50.848;4.584;2022-12-18T05:49:41;49.27;;;22.17;;
22973;SDS011;11653;50.848;4.584;2022-12-18T05:52:07;51.60;;;21.20;;
22973;SDS011;11653;50.848;4.584;2022-12-18T05:54:32;48.27;;;21.20;;
22973;SDS011;11653;50.848;4.584;2022-12-18T05:56:58;47.70;;;21.70;;
22973;SDS011;11653;50.848;4.584;2022-12-18T05:59:24;46.53;;;21.90;;
22973;SDS011;11653;50.848;4.584;2022-12-18T06:01:49;48.63;;;22.00;;
22973;SDS011;11653;50.848;4.584;2022-12-18T06:04:15;44.47;;;21.73;;
22973;SDS011;11653;50.848;4.584;2022-12-18T06:06:41;44.93;;;21.70;;
22973;SDS011;11653;50.848;4.584;2022-12-18T06:09:06;48.97;;;21.33;;
22973;SDS011;11653;50.848;4.584;2022-12-18T06:11:33;48.50;;;22.50;;
22973;SDS011;11653;50.848;4.584;2022-12-18T06:14:00;50.90;;;21.60;;
22973;SDS011;11653;50.848;4.584;2022-12-18T06:16:29;44.73;;;21.07;;
22973;SDS011;11653;50.848;4.584;2022-12-18T06:18:56;47.03;;;20.43;;
22973;SDS011;11653;50.848;4.584;2022-12-18T06:21:26;44.67;;;22.00;;
22973;SDS011;11653;50.848;4.584;2022-12-18T06:23:52;48.07;;;21.40;;
22973;SDS011;11653;50.848;4.584;2022-12-18T06:26:18;47.37;;;22.07;;
22973;SDS011;11653;50.848;4.584;2022-12-18T06:28:44;50.57;;;22.73;;
22973;SDS011;11653;50.848;4.584;2022-12-18T06:31:09;49.73;;;22.20;;
22973;SDS011;11653;50.848;4.584;2022-12-18T06:33:36;47.70;;;21.17;;
22973;SDS011;11653;50.848;4.584;2022-12-18T06:38:30;44.03;;;21.33;;
22973;SDS011;11653;50.848;4.584;2022-12-18T06:40:57;47.50;;;20.37;;
22973;SDS011;11653;50.848;4.584;2022-12-18T06:43:22;43.77;;;21.67;;
22973;SDS011;11653;50.848;4.584;2022-12-18T06:45:48;51.07;;;22.00;;
22973;SDS011;11653;50.848;4.584;2022-12-18T06:48:17;46.93;;;20.77;;
22973;SDS011;11653;50.848;4.584;2022-12-18T06:50:46;49.93;;;20.50;;
22973;SDS011;11653;50.848;4.584;2022-12-18T06:53:12;57.30;;;20.67;;
22973;SDS011;11653;50.848;4.584;2022-12-18T06:55:38;53.67;;;21.93;;
22973;SDS011;11653;50.848;4.584;2022-12-18T06:58:04;51.37;;;21.90;;
22973;SDS011;11653;50.848;4.584;2022-12-18T07:00:30;46.37;;;21.07;;
22973;SDS011;11653;50.848;4.584;2022-12-18T07:02:55;46.53;;;23.10;;
22973;SDS011;11653;50.848;4.584;2022-12-18T07:05:21;53.63;;;24.73;;
22973;SDS011;11653;50.848;4.584;2022-12-18T07:07:46;55.53;;;24.23;;
22973;SDS011;11653;50.848;4.584;2022-12-18T07:10:12;53.53;;;25.33;;
22973;SDS011;11653;50.848;4.584;2022-12-18T07:12:38;40.17;;;21.13;;
22973;SDS011;11653;50.848;4.584;2022-12-18T07:15:04;47.30;;;20.20;;
22973;SDS011;11653;50.848;4.584;2022-12-18T07:17:30;42.13;;;18.73;;
22973;SDS011;11653;50.848;4.584;2022-12-18T07:19:55;47.53;;;21.27;;
22973;SDS011;11653;50.848;4.584;2022-12-18T07:22:21;41.83;;;19.90;;
22973;SDS011;11653;50.848;4.584;2022-12-18T07:24:47;42.30;;;19.53;;
22973;SDS011;11653;50.848;4.584;2022-12-18T07:27:14;39.70;;;18.57;;
22973;SDS011;11653;50.848;4.584;2022-12-18T07:29:39;37.50;;;18.00;;
22973;SDS011;11653;50.848;4.584;2022-12-18T07:32:05;40.07;;;18.47;;
22973;SDS011;11653;50.848;4.584;2022-12-18T07:34:32;35.90;;;19.50;;
22973;SDS011;11653;50.848;4.584;2022-12-18T07:36:57;35.50;;;18.63;;
22973;SDS011;11653;50.848;4.584;2022-12-18T07:39:23;46.33;;;20.37;;
22973;SDS011;11653;50.848;4.584;2022-12-18T07:41:49;42.80;;;19.23;;
22973;SDS011;11653;50.848;4.584;2022-12-18T07:44:34;41.33;;;21.00;;
22973;SDS011;11653;50.848;4.584;2022-12-18T07:47:00;42.40;;;19.97;;
22973;SDS011;11653;50.848;4.584;2022-12-18T07:49:27;46.20;;;21.57;;
22973;SDS011;11653;50.848;4.584;2022-12-18T07:51:53;41.60;;;20.07;;
22973;SDS011;11653;50.848;4.584;2022-12-18T07:54:21;35.63;;;19.00;;
22973;SDS011;11653;50.848;4.584;2022-12-18T07:56:47;42.23;;;19.27;;
22973;SDS011;11653;50.848;4.584;2022-12-18T07:59:13;37.13;;;16.63;;
22973;SDS011;11653;50.848;4.584;2022-12-18T08:01:39;36.47;;;17.47;;
22973;SDS011;11653;50.848;4.584;2022-12-18T08:04:05;33.60;;;17.73;;
22973;SDS011;11653;50.848;4.584;2022-12-18T08:06:31;36.27;;;16.97;;
22973;SDS011;11653;50.848;4.584;2022-12-18T08:08:56;33.30;;;16.97;;
22973;SDS011;11653;50.848;4.584;2022-12-18T08:11:23;36.87;;;17.03;;
22973;SDS011;11653;50.848;4.584;2022-12-18T08:13:51;30.93;;;15.87;;
22973;SDS011;11653;50.848;4.584;2022-12-18T08:16:17;38.60;;;20.73;;
22973;SDS011;11653;50.848;4.584;2022-12-18T08:18:42;29.30;;;15.47;;
22973;SDS011;11653;50.848;4.584;2022-12-18T08:21:12;33.40;;;16.53;;
22973;SDS011;11653;50.848;4.584;2022-12-18T08:23:47;35.87;;;18.17;;
22973;SDS011;11653;50.848;4.584;2022-12-18T08:26:14;38.60;;;17.77;;
22973;SDS011;11653;50.848;4.584;2022-12-18T08:28:40;38.60;;;18.13;;
22973;SDS011;11653;50.848;4.584;2022-12-18T08:31:06;40.70;;;18.10;;
22973;SDS011;11653;50.848;4.584;2022-12-18T08:33:33;30.73;;;15.67;;
22973;SDS011;11653;50.848;4.584;2022-12-18T08:36:00;31.43;;;16.47;;
22973;SDS011;11653;50.848;4.584;2022-12-18T08:38:27;32.77;;;16.47;;
22973;SDS011;11653;50.848;4.584;2022-12-18T08:41:12;27.93;;;16.17;;
22973;SDS011;11653;50.848;4.584;2022-12-18T08:43:39;31.83;;;14.83;;
22973;SDS011;11653;50.848;4.584;2022-12-18T08:46:24;31.93;;;16.40;;
22973;SDS011;11653;50.848;4.584;2022-12-18T08:48:51;33.00;;;16.33;;
22973;SDS011;11653;50.848;4.584;2022-12-18T08:51:18;34.30;;;15.97;;
22973;SDS011;11653;50.848;4.584;2022-12-18T08:53:44;27.07;;;14.63;;
22973;SDS011;11653;50.848;4.584;2022-12-18T08:56:10;33.77;;;15.97;;
22973;SDS011;11653;50.848;4.584;2022-12-18T08:58:37;37.90;;;20.80;;
22973;SDS011;11653;50.848;4.584;2022-12-18T09:01:03;34.83;;;18.60;;
22973;SDS011;11653;50.848;4.584;2022-12-18T09:03:30;28.10;;;15.13;;
22973;SDS011;11653;50.848;4.584;2022-12-18T09:05:56;30.10;;;16.20;;
22973;SDS011;11653;50.848;4.584;2022-12-18T09:08:21;27.70;;;15.50;;
22973;SDS011;11653;50.848;4.584;2022-12-18T09:10:48;29.00;;;16.87;;
22973;SDS011;11653;50.848;4.584;2022-12-18T09:13:15;33.13;;;17.97;;
22973;SDS011;11653;50.848;4.584;2022-12-18T09:15:45;31.50;;;17.27;;
22973;SDS011;11653;50.848;4.584;2022-12-18T09:18:17;33.43;;;18.53;;
22973;SDS011;11653;50.848;4.584;2022-12-18T09:20:44;30.47;;;16.30;;
22973;SDS011;11653;50.848;4.584;2022-12-18T09:23:10;35.43;;;18.03;;
22973;SDS011;11653;50.848;4.584;2022-12-18T09:25:37;30.03;;;16.73;;
22973;SDS011;11653;50.848;4.584;2022-12-18T09:28:04;31.83;;;16.17;;
22973;SDS011;11653;50.848;4.584;2022-12-18T09:30:31;30.07;;;16.23;;
22973;SDS011;11653;50.848;4.584;2022-12-18T09:32:59;32.30;;;14.80;;
22973;SDS011;11653;50.848;4.584;2022-12-18T09:35:25;31.60;;;16.80;;
22973;SDS011;11653;50.848;4.584;2022-12-18T09:37:52;22.87;;;12.80;;
22973;SDS011;11653;50.848;4.584;2022-12-18T09:40:19;38.17;;;19.40;;
22973;SDS011;11653;50.848;4.584;2022-12-18T09:42:52;27.47;;;14.03;;
22973;SDS011;11653;50.848;4.584;2022-12-18T09:45:22;25.53;;;13.63;;
22973;SDS011;11653;50.848;4.584;2022-12-18T09:47:49;28.17;;;13.27;;
22973;SDS011;11653;50.848;4.584;2022-12-18T09:50:28;20.87;;;10.87;;
22973;SDS011;11653;50.848;4.584;2022-12-18T09:52:59;23.57;;;12.87;;
22973;SDS011;11653;50.848;4.584;2022-12-18T09:55:42;24.63;;;11.83;;
22973;SDS011;11653;50.848;4.584;2022-12-18T09:58:45;21.07;;;11.77;;
22973;SDS011;11653;50.848;4.584;2022-12-18T10:01:14;21.97;;;11.63;;
22973;SDS011;11653;50.848;4.584;2022-12-18T10:03:45;23.43;;;12.80;;
22973;SDS011;11653;50.848;4.584;2022-12-18T10:06:22;24.40;;;13.23;;
22973;SDS011;11653;50.848;4.584;2022-12-18T10:14:23;33.07;;;14.33;;
22973;SDS011;11653;50.848;4.584;2022-12-18T10:25:22;22.60;;;11.23;;
22973;SDS011;11653;50.848;4.584;2022-12-18T10:28:24;25.97;;;13.20;;
22973;SDS011;11653;50.848;4.584;2022-12-18T10:30:51;25.20;;;12.37;;
22973;SDS011;11653;50.848;4.584;2022-12-18T10:33:22;22.07;;;13.20;;
22973;SDS011;11653;50.848;4.584;2022-12-18T10:35:49;24.70;;;13.77;;
22973;SDS011;11653;50.848;4.584;2022-12-18T10:43:19;24.63;;;13.57;;
22973;SDS011;11653;50.848;4.584;2022-12-18T10:48:33;34.43;;;17.43;;
22973;SDS011;11653;50.848;4.584;2022-12-18T10:53:55;25.03;;;14.23;;
22973;SDS011;11653;50.848;4.584;2022-12-18T10:56:23;26.27;;;13.40;;
22973;SDS011;11653;50.848;4.584;2022-12-18T10:59:10;24.87;;;12.77;;
22973;SDS011;11653;50.848;4.584;2022-12-18T11:04:23;48.27;;;21.37;;
22973;SDS011;11653;50.848;4.584;2022-12-18T11:07:00;102.13;;;46.33;;
22973;SDS011;11653;50.848;4.584;2022-12-18T11:09:29;30.40;;;17.10;;
22973;SDS011;11653;50.848;4.584;2022-12-18T11:12:02;25.03;;;14.97;;
22973;SDS011;11653;50.848;4.584;2022-12-18T11:14:47;32.57;;;17.17;;
22973;SDS011;11653;50.848;4.584;2022-12-18T11:19:58;30.77;;;16.20;;
22973;SDS011;11653;50.848;4.584;2022-12-18T11:22:30;34.13;;;15.53;;
22973;SDS011;11653;50.848;4.584;2022-12-18T11:27:27;31.23;;;15.57;;
22973;SDS011;11653;50.848;4.584;2022-12-18T11:30:06;29.53;;;16.43;;
22973;SDS011;11653;50.848;4.584;2022-12-18T11:35:53;30.20;;;16.37;;
22973;SDS011;11653;50.848;4.584;2022-12-18T11:38:29;33.57;;;18.10;;
22973;SDS011;11653;50.848;4.584;2022-12-18T11:41:19;30.57;;;17.27;;
22973;SDS011;11653;50.848;4.584;2022-12-18T11:44:35;30.53;;;16.53;;
22973;SDS011;11653;50.848;4.584;2022-12-18T11:47:25;28.47;;;15.63;;
22973;SDS011;11653;50.848;4.584;2022-12-18T11:50:03;26.47;;;15.27;;
22973;SDS011;11653;50.848;4.584;2022-12-18T11:52:56;29.37;;;15.80;;
22973;SDS011;11653;50.848;4.584;2022-12-18T12:00:45;34.63;;;17.67;;
22973;SDS011;11653;50.848;4.584;2022-12-18T12:03:39;31.40;;;17.37;;
22973;SDS011;11653;50.848;4.584;2022-12-18T12:06:31;33.73;;;16.90;;
22973;SDS011;11653;50.848;4.584;2022-12-18T12:09:17;32.67;;;17.20;;
22973;SDS011;11653;50.848;4.584;2022-12-18T12:14:19;35.63;;;19.83;;
22973;SDS011;11653;50.848;4.584;2022-12-18T12:19:42;34.87;;;20.27;;
22973;SDS011;11653;50.848;4.584;2022-12-18T12:25:07;28.37;;;17.43;;
22973;SDS011;11653;50.848;4.584;2022-12-18T12:33:23;37.50;;;21.17;;
22973;SDS011;11653;50.848;4.584;2022-12-18T12:38:27;41.07;;;22.17;;
22973;SDS011;11653;50.848;4.584;2022-12-18T12:41:03;27.90;;;15.60;;
22973;SDS011;11653;50.848;4.584;2022-12-18T12:46:06;27.20;;;14.93;;
22973;SDS011;11653;50.848;4.584;2022-12-18T12:48:42;29.57;;;15.00;;
22973;SDS011;11653;50.848;4.584;2022-12-18T12:51:17;29.03;;;14.53;;
22973;SDS011;11653;50.848;4.584;2022-12-18T12:53:49;28.27;;;16.23;;
22973;SDS011;11653;50.848;4.584;2022-12-18T12:56:15;25.63;;;14.80;;
22973;SDS011;11653;50.848;4.584;2022-12-18T13:04:11;24.70;;;13.67;;
22973;SDS011;11653;50.848;4.584;2022-12-18T13:06:53;25.70;;;15.50;;
22973;SDS011;11653;50.848;4.584;2022-12-18T13:10:10;28.00;;;15.27;;
22973;SDS011;11653;50.848;4.584;2022-12-18T13:18:35;26.30;;;15.73;;
22973;SDS011;11653;50.848;4.584;2022-12-18T13:21:02;33.33;;;16.50;;
22973;SDS011;11653;50.848;4.584;2022-12-18T13:23:37;31.00;;;16.57;;
22973;SDS011;11653;50.848;4.584;2022-12-18T13:31:01;29.10;;;14.93;;
22973;SDS011;11653;50.848;4.584;2022-12-18T13:33:43;26.63;;;17.03;;
22973;SDS011;11653;50.848;4.584;2022-12-18T13:39:11;26.03;;;14.67;;
22973;SDS011;11653;50.848;4.584;2022-12-18T13:41:50;32.63;;;17.27;;
22973;SDS011;11653;50.848;4.584;2022-12-18T13:47:05;27.47;;;14.93;;
22973;SDS011;11653;50.848;4.584;2022-12-18T13:49:49;31.17;;;15.63;;
22973;SDS011;11653;50.848;4.584;2022-12-18T13:52:20;32.43;;;16.37;;
22973;SDS011;11653;50.848;4.584;2022-12-18T13:54:52;35.53;;;16.60;;
22973;SDS011;11653;50.848;4.584;2022-12-18T13:57:30;30.37;;;15.53;;
22973;SDS011;11653;50.848;4.584;2022-12-18T14:02:48;29.93;;;15.27;;
22973;SDS011;11653;50.848;4.584;2022-12-18T14:07:55;35.40;;;16.93;;
22973;SDS011;11653;50.848;4.584;2022-12-18T14:10:25;39.17;;;19.10;;
22973;SDS011;11653;50.848;4.584;2022-12-18T14:12:51;32.57;;;16.50;;
22973;SDS011;11653;50.848;4.584;2022-12-18T14:17:53;34.40;;;16.50;;
22973;SDS011;11653;50.848;4.584;2022-12-18T14:20:39;31.60;;;16.50;;
22973;SDS011;11653;50.848;4.584;2022-12-18T14:26:24;32.20;;;16.47;;
22973;SDS011;11653;50.848;4.584;2022-12-18T14:28:54;31.83;;;16.30;;
22973;SDS011;11653;50.848;4.584;2022-12-18T14:31:24;33.20;;;16.20;;
22973;SDS011;11653;50.848;4.584;2022-12-18T14:33:51;40.00;;;20.13;;
22973;SDS011;11653;50.848;4.584;2022-12-18T14:36:18;34.53;;;17.00;;
22973;SDS011;11653;50.848;4.584;2022-12-18T14:38:55;34.20;;;17.23;;
22973;SDS011;11653;50.848;4.584;2022-12-18T14:41:22;37.63;;;17.40;;
22973;SDS011;11653;50.848;4.584;2022-12-18T14:43:50;36.83;;;18.47;;
22973;SDS011;11653;50.848;4.584;2022-12-18T14:49:00;43.30;;;19.80;;
22973;SDS011;11653;50.848;4.584;2022-12-18T14:51:54;38.07;;;19.30;;
22973;SDS011;11653;50.848;4.584;2022-12-18T14:54:24;34.40;;;18.17;;
22973;SDS011;11653;50.848;4.584;2022-12-18T14:57:02;38.50;;;19.40;;
22973;SDS011;11653;50.848;4.584;2022-12-18T14:59:28;41.30;;;20.07;;
22973;SDS011;11653;50.848;4.584;2022-12-18T15:04:25;36.23;;;18.30;;
22973;SDS011;11653;50.848;4.584;2022-12-18T15:18:11;39.00;;;19.97;;
22973;SDS011;11653;50.848;4.584;2022-12-18T15:25:57;42.50;;;21.03;;
22973;SDS011;11653;50.848;4.584;2022-12-18T15:28:30;42.20;;;19.30;;
22973;SDS011;11653;50.848;4.584;2022-12-18T15:33:32;42.90;;;20.50;;
22973;SDS011;11653;50.848;4.584;2022-12-18T15:36:00;41.40;;;21.00;;
22973;SDS011;11653;50.848;4.584;2022-12-18T15:38:28;47.70;;;22.70;;
22973;SDS011;11653;50.848;4.584;2022-12-18T15:40:53;41.50;;;19.97;;
22973;SDS011;11653;50.848;4.584;2022-12-18T15:43:23;40.93;;;19.07;;
22973;SDS011;11653;50.848;4.584;2022-12-18T15:46:02;36.87;;;17.10;;
22973;SDS011;11653;50.848;4.584;2022-12-18T15:48:29;36.57;;;19.57;;
22973;SDS011;11653;50.848;4.584;2022-12-18T15:50:58;41.80;;;19.27;;
22973;SDS011;11653;50.848;4.584;2022-12-18T15:53:25;41.43;;;20.70;;
22973;SDS011;11653;50.848;4.584;2022-12-18T15:55:55;42.67;;;19.67;;
22973;SDS011;11653;50.848;4.584;2022-12-18T15:58:39;39.87;;;19.97;;
22973;SDS011;11653;50.848;4.584;2022-12-18T16:01:05;43.83;;;20.17;;
22973;SDS011;11653;50.848;4.584;2022-12-18T16:03:32;40.27;;;19.33;;
22973;SDS011;11653;50.848;4.584;2022-12-18T16:05:58;39.53;;;18.90;;
22973;SDS011;11653;50.848;4.584;2022-12-18T16:08:26;38.00;;;17.73;;
22973;SDS011;11653;50.848;4.584;2022-12-18T16:10:54;42.57;;;19.70;;
22973;SDS011;11653;50.848;4.584;2022-12-18T16:13:20;45.93;;;21.27;;
22973;SDS011;11653;50.848;4.584;2022-12-18T16:15:46;36.20;;;19.47;;
22973;SDS011;11653;50.848;4.584;2022-12-18T16:18:11;38.53;;;19.77;;
22973;SDS011;11653;50.848;4.584;2022-12-18T16:20:37;39.00;;;19.57;;
22973;SDS011;11653;50.848;4.584;2022-12-18T16:23:03;38.17;;;18.97;;
22973;SDS011;11653;50.848;4.584;2022-12-18T16:25:29;39.70;;;20.13;;
22973;SDS011;11653;50.848;4.584;2022-12-18T16:27:55;40.80;;;20.53;;
22973;SDS011;11653;50.848;4.584;2022-12-18T16:30:22;42.20;;;19.63;;
22973;SDS011;11653;50.848;4.584;2022-12-18T16:32:51;42.47;;;21.53;;
22973;SDS011;11653;50.848;4.584;2022-12-18T16:35:16;38.80;;;19.53;;
22973;SDS011;11653;50.848;4.584;2022-12-18T16:37:42;44.80;;;19.80;;
22973;SDS011;11653;50.848;4.584;2022-12-18T16:40:10;42.63;;;20.90;;
22973;SDS011;11653;50.848;4.584;2022-12-18T16:42:38;39.17;;;20.23;;
22973;SDS011;11653;50.848;4.584;2022-12-18T16:45:05;44.83;;;20.13;;
22973;SDS011;11653;50.848;4.584;2022-12-18T16:47:32;45.00;;;18.83;;
22973;SDS011;11653;50.848;4.584;2022-12-18T16:49:58;49.43;;;22.83;;
22973;SDS011;11653;50.848;4.584;2022-12-18T16:52:24;45.80;;;23.00;;
22973;SDS011;11653;50.848;4.584;2022-12-18T16:54:50;65.53;;;31.87;;
22973;SDS011;11653;50.848;4.584;2022-12-18T16:57:16;44.03;;;19.23;;
22973;SDS011;11653;50.848;4.584;2022-12-18T16:59:44;46.30;;;21.80;;
22973;SDS011;11653;50.848;4.584;2022-12-18T17:02:18;43.13;;;21.07;;
22973;SDS011;11653;50.848;4.584;2022-12-18T17:04:46;42.47;;;20.90;;
22973;SDS011;11653;50.848;4.584;2022-12-18T17:07:12;44.97;;;21.77;;